Time;durP1;ratioP1;P1;durP2;ratioP2;P2;SDS_P1;SDS_P2;PMS_P1;PMS_P2;Temp;Humidity;BMP_temperature;BMP_pressure;BME280_temperature;BME280_humidity;BME280_pressure;Samples;Min_cycle;Max_cycle;Signal;HPM_P1;HPM_P2
2021/12/03 00:01:39;;;;;;;5.72;3.08;;;32.40;90.20;;;;;;5081173;28;20017;-67
2021/12/03 00:04:06;;;;;;;4.75;3.08;;;32.60;91.40;;;;;;5072472;28;20104;-68
2021/12/03 00:06:36;;;;;;;6.03;3.05;;;32.90;90.00;;;;;;5085562;28;20028;-67
2021/12/03 00:09:05;;;;;;;7.38;3.13;;;32.70;90.30;;;;;;5077142;28;20012;-69
2021/12/03 00:11:32;;;;;;;4.45;2.95;;;32.30;90.80;;;;;;5076189;28;20058;-67
2021/12/03 00:13:59;;;;;;;4.13;3.72;;;32.30;91.40;;;;;;5067210;28;20443;-70
2021/12/03 00:16:26;;;;;;;8.48;3.42;;;32.70;90.60;;;;;;5078774;28;20421;-69
2021/12/03 00:18:54;;;;;;;4.88;3.10;;;33.10;90.30;;;;;;5076785;28;20020;-68
2021/12/03 00:21:22;;;;;;;4.57;3.03;;;33.50;90.30;;;;;;5074880;28;20103;-69
2021/12/03 00:23:49;;;;;;;8.23;3.22;;;34.00;85.30;;;;;;5074029;28;20036;-67
2021/12/03 00:26:16;;;;;;;6.43;3.10;;;33.70;83.50;;;;;;5062868;28;20367;-69
2021/12/03 00:28:43;;;;;;;6.32;3.22;;;33.60;83.00;;;;;;5080958;28;20459;-69
2021/12/03 00:31:11;;;;;;;5.65;3.35;;;33.70;78.70;;;;;;5079947;28;20048;-70
2021/12/03 00:33:39;;;;;;;3.97;2.97;;;33.80;76.20;;;;;;5075147;28;20021;-69
2021/12/03 00:36:08;;;;;;;6.43;3.20;;;33.50;76.90;;;;;;5080772;28;20016;-68
2021/12/03 00:38:40;;;;;;;3.90;3.28;;;33.60;75.70;;;;;;5077427;28;20024;-69
2021/12/03 00:41:11;;;;;;;6.22;3.08;;;33.50;76.40;;;;;;5082937;28;20524;-68
2021/12/03 00:43:43;;;;;;;5.50;3.10;;;33.50;75.10;;;;;;5080477;28;20023;-69
2021/12/03 00:46:12;;;;;;;4.93;3.25;;;33.80;76.50;;;;;;5079315;28;20030;-67
2021/12/03 00:48:39;;;;;;;9.70;3.50;;;33.60;74.90;;;;;;5076202;28;20089;-69
2021/12/03 00:51:08;;;;;;;4.70;3.47;;;33.80;74.40;;;;;;5074216;28;20092;-70
2021/12/03 00:53:36;;;;;;;6.22;3.17;;;33.90;75.10;;;;;;5072660;28;20029;-70
2021/12/03 00:56:04;;;;;;;9.18;3.53;;;34.00;76.30;;;;;;5074359;28;21244;-70
2021/12/03 00:58:31;;;;;;;7.22;3.10;;;33.40;78.20;;;;;;5060873;28;20073;-68
2021/12/03 01:00:58;;;;;;;6.82;3.35;;;32.70;81.80;;;;;;5071903;28;20013;-68
2021/12/03 01:03:25;;;;;;;8.02;4.85;;;32.70;83.40;;;;;;5071557;28;20109;-70
2021/12/03 01:05:52;;;;;;;8.18;3.30;;;32.60;84.10;;;;;;5075226;28;20471;-70
2021/12/03 01:08:19;;;;;;;6.07;2.70;;;32.30;85.00;;;;;;5055565;28;20123;-68
2021/12/03 01:10:46;;;;;;;5.93;2.90;;;32.20;85.30;;;;;;5071989;28;20020;-70
2021/12/03 01:13:13;;;;;;;6.22;2.60;;;32.20;86.40;;;;;;5075157;28;20032;-68
2021/12/03 01:15:42;;;;;;;4.60;2.45;;;32.10;86.30;;;;;;5077845;28;20016;-71
2021/12/03 01:18:10;;;;;;;6.57;2.60;;;31.70;86.80;;;;;;5079626;28;20028;-70
2021/12/03 01:20:39;;;;;;;3.85;1.98;;;31.10;89.60;;;;;;5078223;28;20024;-70
2021/12/03 01:23:07;;;;;;;4.50;2.10;;;31.10;90.50;;;;;;5077708;28;20020;-69
2021/12/03 01:25:34;;;;;;;6.13;2.53;;;31.30;91.20;;;;;;5063232;28;20032;-70
2021/12/03 01:28:02;;;;;;;6.00;2.45;;;31.10;90.20;;;;;;5084732;28;20612;-69
2021/12/03 01:30:30;;;;;;;4.65;2.55;;;31.00;91.80;;;;;;5080196;28;20024;-67
2021/12/03 01:32:59;;;;;;;10.13;3.40;;;30.80;92.30;;;;;;5080469;28;20027;-68
2021/12/03 01:35:26;;;;;;;5.93;2.20;;;31.00;91.40;;;;;;5079609;28;20051;-68
2021/12/03 01:37:53;;;;;;;7.45;3.25;;;30.90;91.30;;;;;;5084012;28;20020;-70
2021/12/03 01:40:24;;;;;;;12.43;4.65;;;30.50;93.00;;;;;;5082489;28;20493;-70
2021/12/03 01:42:52;;;;;;;10.70;3.37;;;30.80;92.50;;;;;;5080980;28;20013;-71
2021/12/03 01:45:23;;;;;;;5.65;2.90;;;31.00;91.70;;;;;;5083609;28;20026;-71
2021/12/03 01:47:51;;;;;;;9.20;4.03;;;30.70;92.00;;;;;;5079033;28;20112;-72
2021/12/03 01:50:22;;;;;;;8.77;3.92;;;30.50;92.80;;;;;;5080706;28;20067;-69
2021/12/03 01:52:49;;;;;;;9.82;4.78;;;30.20;93.40;;;;;;5081180;28;20067;-70
2021/12/03 01:55:17;;;;;;;9.35;3.75;;;30.40;93.80;;;;;;5080627;28;20025;-69
2021/12/03 01:57:44;;;;;;;7.78;3.85;;;30.60;93.40;;;;;;5081667;28;20043;-71
2021/12/03 02:00:37;;;;;;;6.13;3.92;;;30.80;93.10;;;;;;5082659;28;20467;-72
2021/12/03 02:03:07;;;;;;;7.88;4.20;;;30.70;92.70;;;;;;5065154;28;20040;-71
2021/12/03 02:05:35;;;;;;;7.03;4.43;;;30.80;92.80;;;;;;5074925;28;20840;-68
2021/12/03 02:08:03;;;;;;;10.77;4.32;;;30.70;93.20;;;;;;5077241;28;20044;-71
2021/12/03 02:10:30;;;;;;;7.00;4.18;;;30.80;93.20;;;;;;5077668;28;20075;-68
2021/12/03 02:12:57;;;;;;;9.50;4.40;;;30.80;92.70;;;;;;5072181;28;20104;-71
2021/12/03 02:15:24;;;;;;;12.13;4.47;;;31.00;92.80;;;;;;5080391;28;20023;-68
2021/12/03 02:17:51;;;;;;;10.80;4.78;;;31.00;93.30;;;;;;5081896;28;20027;-69
2021/12/03 02:20:19;;;;;;;10.40;4.13;;;30.90;92.70;;;;;;5079199;28;20099;-69
2021/12/03 02:22:47;;;;;;;7.93;4.90;;;30.70;92.90;;;;;;5077619;28;20134;-70
2021/12/03 02:25:24;;;;;;;7.47;4.05;;;30.70;93.00;;;;;;5082547;28;20032;-69
2021/12/03 02:27:53;;;;;;;7.07;4.43;;;30.50;93.30;;;;;;5081355;28;20127;-70
2021/12/03 02:30:22;;;;;;;7.45;4.45;;;30.80;93.50;;;;;;5080425;28;20046;-69
2021/12/03 02:32:51;;;;;;;7.20;4.65;;;30.90;93.50;;;;;;5080288;28;20103;-69
2021/12/03 02:35:20;;;;;;;7.60;4.55;;;31.00;93.30;;;;;;5079415;28;20024;-70
2021/12/03 02:37:48;;;;;;;10.73;5.15;;;31.20;91.80;;;;;;5082186;28;20048;-70
2021/12/03 02:40:16;;;;;;;7.43;4.68;;;31.30;92.10;;;;;;5081539;28;20020;-68
2021/12/03 02:42:44;;;;;;;8.60;5.13;;;31.30;91.20;;;;;;5076938;28;20032;-70
2021/12/03 02:45:13;;;;;;;7.57;5.47;;;30.30;93.70;;;;;;5079841;28;20054;-67
2021/12/03 02:47:41;;;;;;;11.40;5.90;;;29.90;94.20;;;;;;5080180;28;20021;-71
2021/12/03 02:50:10;;;;;;;9.32;5.32;;;29.10;94.80;;;;;;5079768;28;20020;-69
2021/12/03 02:52:37;;;;;;;9.32;5.90;;;28.70;96.40;;;;;;5077684;28;20027;-69
2021/12/03 02:55:06;;;;;;;11.90;5.82;;;29.10;96.70;;;;;;5080979;28;20086;-68
2021/12/03 02:57:33;;;;;;;9.88;5.72;;;28.90;96.40;;;;;;5080213;28;20024;-70
2021/12/03 03:00:00;;;;;;;8.98;5.35;;;28.50;96.50;;;;;;5079849;28;20028;-68
2021/12/03 03:02:27;;;;;;;10.88;5.90;;;28.20;97.50;;;;;;5078288;28;20016;-69
2021/12/03 03:04:54;;;;;;;12.63;5.60;;;28.80;97.20;;;;;;5077112;28;20028;-69
2021/12/03 03:07:22;;;;;;;7.57;5.50;;;29.50;95.80;;;;;;5079326;28;20049;-69
2021/12/03 03:09:49;;;;;;;9.73;5.72;;;29.90;94.80;;;;;;4363951;28;10000730;-69
2021/12/03 03:12:18;;;;;;;8.85;5.65;;;30.20;93.70;;;;;;5070721;28;20112;-68
2021/12/03 03:14:54;;;;;;;9.02;5.45;;;30.30;93.30;;;;;;5075528;28;20029;-68
2021/12/03 03:17:27;;;;;;;8.85;5.45;;;30.90;92.10;;;;;;5082293;28;20016;-68
2021/12/03 03:19:55;;;;;;;8.60;5.50;;;30.70;91.80;;;;;;5070237;28;20334;-71
2021/12/03 03:22:23;;;;;;;11.15;6.10;;;30.60;91.90;;;;;;5065418;28;20020;-67
2021/12/03 03:24:53;;;;;;;8.00;5.70;;;30.10;92.40;;;;;;5073132;28;20117;-69
2021/12/03 03:27:21;;;;;;;10.52;6.50;;;30.20;92.80;;;;;;5078177;28;20414;-70
2021/12/03 03:29:51;;;;;;;7.95;6.32;;;30.20;92.80;;;;;;5070862;28;20023;-68
2021/12/03 03:32:19;;;;;;;11.43;6.53;;;30.30;93.10;;;;;;5066441;28;20040;-68
2021/12/03 03:34:46;;;;;;;9.80;5.68;;;30.40;92.10;;;;;;5072134;28;20569;-70
2021/12/03 03:37:13;;;;;;;11.68;6.93;;;30.50;91.40;;;;;;5073276;28;20055;-69
2021/12/03 03:39:41;;;;;;;10.40;6.95;;;30.50;91.50;;;;;;5073819;28;20593;-69
2021/12/03 03:42:08;;;;;;;13.65;6.65;;;30.10;93.00;;;;;;5067971;28;20090;-67
2021/12/03 03:44:39;;;;;;;13.90;8.18;;;30.20;93.00;;;;;;5067364;28;20814;-68
2021/12/03 03:47:07;;;;;;;11.93;7.00;;;30.70;92.50;;;;;;5074100;28;20024;-69
2021/12/03 03:49:36;;;;;;;11.40;6.95;;;30.60;91.60;;;;;;5082953;28;20543;-71
2021/12/03 03:52:04;;;;;;;11.15;6.75;;;30.50;91.90;;;;;;5076432;28;20497;-68
2021/12/03 03:54:31;;;;;;;11.23;6.95;;;30.40;92.10;;;;;;5070525;28;20029;-68
2021/12/03 03:56:59;;;;;;;11.80;6.50;;;30.30;91.20;;;;;;5075496;28;20729;-69
2021/12/03 03:59:26;;;;;;;9.75;7.10;;;30.00;91.70;;;;;;5077858;28;20532;-68
2021/12/03 04:01:53;;;;;;;9.02;7.30;;;30.20;91.20;;;;;;5068084;28;20024;-68
2021/12/03 04:04:21;;;;;;;15.57;8.30;;;30.30;92.30;;;;;;5076663;28;20016;-74
2021/12/03 04:06:50;;;;;;;14.15;8.63;;;30.60;91.60;;;;;;5076725;28;20060;-73
2021/12/03 04:09:17;;;;;;;11.23;7.80;;;31.10;90.70;;;;;;5071003;28;20056;-71
2021/12/03 04:11:44;;;;;;;10.88;7.05;;;31.70;90.30;;;;;;5080877;28;20214;-70
2021/12/03 04:14:11;;;;;;;13.27;8.23;;;32.10;87.90;;;;;;5073519;28;20663;-70
2021/12/03 04:16:38;;;;;;;13.95;8.43;;;32.10;86.70;;;;;;5073601;28;20020;-73
2021/12/03 04:19:06;;;;;;;14.18;8.85;;;31.50;88.70;;;;;;5076277;28;20133;-73
2021/12/03 04:21:33;;;;;;;16.95;8.85;;;30.40;90.00;;;;;;5073965;28;20039;-68
2021/12/03 04:24:00;;;;;;;14.65;9.95;;;29.20;92.10;;;;;;5077366;28;20743;-68
2021/12/03 04:26:27;;;;;;;20.02;10.07;;;28.40;93.30;;;;;;5073401;28;20136;-67
2021/12/03 04:28:54;;;;;;;16.50;9.48;;;27.50;95.70;;;;;;5073915;28;20444;-72
2021/12/03 04:31:21;;;;;;;14.05;8.75;;;26.80;97.80;;;;;;5071361;28;20032;-72
2021/12/03 04:33:48;;;;;;;15.45;10.15;;;26.10;99.90;;;;;;5073980;28;20040;-69
2021/12/03 04:36:15;;;;;;;20.25;10.63;;;25.70;99.90;;;;;;5075050;28;20032;-70
2021/12/03 04:38:42;;;;;;;18.77;11.80;;;25.40;99.90;;;;;;5073818;28;20060;-72
2021/12/03 04:41:09;;;;;;;19.67;10.88;;;24.90;99.90;;;;;;5077704;28;20158;-72
2021/12/03 04:43:36;;;;;;;19.63;10.82;;;24.70;99.90;;;;;;5073241;28;20028;-68
2021/12/03 04:46:03;;;;;;;19.05;11.07;;;24.50;99.90;;;;;;5074734;28;20114;-75
2021/12/03 04:48:31;;;;;;;18.95;10.27;;;24.20;99.90;;;;;;5075002;28;20033;-70
2021/12/03 04:50:58;;;;;;;21.60;11.45;;;23.90;99.90;;;;;;5075436;28;20020;-68
2021/12/03 04:53:26;;;;;;;21.83;11.48;;;23.70;99.90;;;;;;5077337;28;20628;-66
2021/12/03 04:55:53;;;;;;;20.55;11.60;;;23.40;99.90;;;;;;5074448;28;20032;-69
2021/12/03 04:58:20;;;;;;;23.90;11.13;;;23.20;99.90;;;;;;5075357;28;20024;-69
2021/12/03 05:00:55;;;;;;;23.52;12.52;;;22.80;99.90;;;;;;5082658;28;20024;-69
2021/12/03 05:03:24;;;;;;;24.90;11.00;;;22.40;99.90;;;;;;5080412;28;20039;-69
2021/12/03 05:05:58;;;;;;;20.45;11.38;;;22.10;99.90;;;;;;5077601;28;20371;-69
2021/12/03 05:08:28;;;;;;;19.75;10.75;;;21.90;99.90;;;;;;5081638;28;20027;-69
2021/12/03 05:10:56;;;;;;;19.08;10.88;;;21.70;99.90;;;;;;5079150;28;20027;-69
2021/12/03 05:13:31;;;;;;;21.63;10.52;;;21.50;99.90;;;;;;5081271;28;20031;-68
2021/12/03 05:15:59;;;;;;;20.90;10.70;;;21.40;99.90;;;;;;5080597;28;20017;-68
2021/12/03 05:18:28;;;;;;;20.75;10.50;;;21.40;99.90;;;;;;5077342;28;20060;-68
2021/12/03 05:20:58;;;;;;;21.00;10.70;;;21.40;99.90;;;;;;5078398;28;20028;-67
2021/12/03 05:23:27;;;;;;;21.58;10.20;;;21.60;99.90;;;;;;5080295;28;20067;-66
2021/12/03 05:25:54;;;;;;;21.67;10.63;;;21.80;99.90;;;;;;5077696;28;20086;-69
2021/12/03 05:28:22;;;;;;;18.88;11.20;;;22.20;99.90;;;;;;5080739;28;20094;-69
2021/12/03 05:30:49;;;;;;;20.30;9.57;;;22.20;99.90;;;;;;5078201;28;20032;-68
2021/12/03 05:33:16;;;;;;;19.35;10.20;;;22.00;99.90;;;;;;5077896;28;20082;-69
2021/12/03 05:35:46;;;;;;;20.73;10.40;;;22.10;99.90;;;;;;5079774;28;20060;-68
2021/12/03 05:38:14;;;;;;;19.30;10.10;;;22.00;99.90;;;;;;5081529;28;20021;-67
2021/12/03 05:40:41;;;;;;;20.10;10.90;;;21.90;99.90;;;;;;5082071;28;20479;-67
2021/12/03 05:43:08;;;;;;;19.38;10.35;;;21.80;99.90;;;;;;5077395;28;20044;-68
2021/12/03 05:45:37;;;;;;;18.33;12.30;;;21.80;99.90;;;;;;5077335;28;20032;-68
2021/12/03 05:48:05;;;;;;;19.27;11.27;;;21.90;99.90;;;;;;5078339;28;20035;-68
2021/12/03 05:50:32;;;;;;;26.60;18.42;;;22.00;99.90;;;;;;5073541;28;20028;-68
2021/12/03 05:53:01;;;;;;;21.02;13.38;;;22.10;99.90;;;;;;5081772;28;20043;-68
2021/12/03 05:55:28;;;;;;;19.95;11.43;;;22.00;99.90;;;;;;5076196;28;20020;-68
2021/12/03 05:57:56;;;;;;;21.35;10.68;;;22.00;99.90;;;;;;5078275;28;20031;-68
2021/12/03 06:00:35;;;;;;;22.17;10.50;;;22.10;99.90;;;;;;5079960;28;20455;-68
2021/12/03 06:03:03;;;;;;;17.52;10.60;;;22.20;99.90;;;;;;5082148;28;20078;-68
2021/12/03 06:05:31;;;;;;;26.05;15.10;;;22.20;99.90;;;;;;5075521;28;20525;-68
2021/12/03 06:08:00;;;;;;;20.23;10.77;;;22.30;99.90;;;;;;5082047;28;20103;-70
2021/12/03 06:10:29;;;;;;;16.63;9.75;;;22.40;99.90;;;;;;5076133;28;20016;-68
2021/12/03 06:12:57;;;;;;;24.80;11.07;;;22.40;99.90;;;;;;5077279;28;20454;-69
2021/12/03 06:15:26;;;;;;;18.38;9.85;;;22.70;99.90;;;;;;5077292;28;20031;-68
2021/12/03 06:17:54;;;;;;;22.42;10.88;;;23.00;99.90;;;;;;5075948;28;20040;-69
2021/12/03 06:20:21;;;;;;;16.30;10.77;;;23.00;99.90;;;;;;5078156;28;20039;-69
2021/12/03 06:22:50;;;;;;;19.25;11.05;;;23.00;99.90;;;;;;5078494;28;20024;-72
2021/12/03 06:25:18;;;;;;;18.27;10.70;;;22.90;99.90;;;;;;5076554;28;20042;-70
2021/12/03 06:27:48;;;;;;;15.98;10.13;;;22.70;99.90;;;;;;5057804;28;20072;-68
2021/12/03 06:30:21;;;;;;;18.67;10.95;;;22.40;99.90;;;;;;5065939;28;20470;-69
2021/12/03 06:32:48;;;;;;;;;;;22.20;99.90;;;;;;5081399;28;20051;-68
2021/12/03 06:35:16;;;;;;;16.73;10.15;;;22.10;99.90;;;;;;5075956;28;19916;-72
2021/12/03 06:37:45;;;;;;;17.40;10.70;;;22.00;99.90;;;;;;5077715;28;20052;-71
2021/12/03 06:40:16;;;;;;;16.00;9.88;;;22.00;99.90;;;;;;5077499;28;20020;-70
2021/12/03 06:42:43;;;;;;;18.52;11.05;;;21.80;99.90;;;;;;5077935;28;20020;-68
2021/12/03 06:45:12;;;;;;;25.10;13.15;;;21.70;99.90;;;;;;5080570;28;20067;-68
2021/12/03 06:47:40;;;;;;;18.70;12.73;;;21.50;99.90;;;;;;5074027;28;20024;-69
2021/12/03 06:50:09;;;;;;;18.98;12.32;;;21.40;99.90;;;;;;5079831;28;20366;-71
2021/12/03 06:52:40;;;;;;;23.20;12.05;;;21.30;99.90;;;;;;5073861;28;20746;-69
2021/12/03 06:55:10;;;;;;;22.58;11.45;;;21.20;99.90;;;;;;5075851;28;20033;-71
2021/12/03 06:57:38;;;;;;;22.15;11.35;;;21.20;99.90;;;;;;5059314;28;20028;-69
2021/12/03 07:00:07;;;;;;;18.55;11.07;;;21.30;99.90;;;;;;5079948;28;20032;-71
2021/12/03 07:02:34;;;;;;;19.35;10.82;;;21.40;99.90;;;;;;5073132;28;20513;-69
2021/12/03 07:05:04;;;;;;;16.42;11.40;;;21.40;99.90;;;;;;5073952;28;20128;-71
2021/12/03 07:07:31;;;;;;;22.08;11.02;;;21.40;99.90;;;;;;5076574;28;20627;-68
2021/12/03 07:10:00;;;;;;;18.98;11.40;;;21.30;99.90;;;;;;5061588;28;20028;-67
2021/12/03 07:12:27;;;;;;;20.95;10.68;;;21.30;99.90;;;;;;5077585;28;20028;-69
2021/12/03 07:14:54;;;;;;;19.65;11.00;;;21.40;99.90;;;;;;5085085;28;20039;-67
2021/12/03 07:17:22;;;;;;;24.08;12.93;;;21.40;99.90;;;;;;5077803;28;20025;-71
2021/12/03 07:19:49;;;;;;;21.42;10.85;;;21.50;99.90;;;;;;5078139;28;20020;-71
2021/12/03 07:22:15;;;;;;;17.10;10.68;;;21.60;99.90;;;;;;5059171;28;20024;-71
2021/12/03 07:24:43;;;;;;;20.38;10.77;;;21.60;99.90;;;;;;5080865;28;20071;-73
2021/12/03 07:27:09;;;;;;;20.50;10.55;;;21.60;99.90;;;;;;5076070;28;20102;-68
2021/12/03 07:29:37;;;;;;;18.77;11.07;;;21.60;99.90;;;;;;5057349;28;20074;-66
2021/12/03 07:32:04;;;;;;;21.13;10.48;;;21.60;99.90;;;;;;5074178;28;20024;-68
2021/12/03 07:34:32;;;;;;;18.20;10.82;;;21.60;99.90;;;;;;5072275;28;20036;-72
2021/12/03 07:36:59;;;;;;;20.35;11.55;;;21.60;99.90;;;;;;5076110;28;20032;-71
2021/12/03 07:39:26;;;;;;;18.23;11.00;;;21.70;99.90;;;;;;5075614;28;20032;-70
2021/12/03 07:41:53;;;;;;;21.98;11.20;;;21.80;99.90;;;;;;5068926;28;20107;-68
2021/12/03 07:44:20;;;;;;;17.33;9.50;;;21.70;99.90;;;;;;5076218;28;20107;-67
2021/12/03 07:46:47;;;;;;;19.50;10.82;;;21.60;99.90;;;;;;5072909;28;20670;-70
2021/12/03 07:49:15;;;;;;;17.70;10.90;;;21.70;99.90;;;;;;5077211;28;20033;-66
2021/12/03 07:51:42;;;;;;;21.30;11.82;;;21.70;99.90;;;;;;5075025;28;20107;-71
2021/12/03 07:54:09;;;;;;;19.48;12.80;;;21.70;99.90;;;;;;5077395;28;20024;-68
2021/12/03 07:56:36;;;;;;;26.02;14.52;;;21.60;99.90;;;;;;5080338;28;20020;-66
2021/12/03 07:59:05;;;;;;;62.97;33.60;;;21.60;99.90;;;;;;5072069;28;20025;-69
2021/12/03 08:01:35;;;;;;;147.80;86.20;;;21.50;99.90;;;;;;5070954;28;20042;-70
2021/12/03 08:04:02;;;;;;;62.08;35.30;;;21.60;99.90;;;;;;5072101;28;20542;-69
2021/12/03 08:06:31;;;;;;;53.65;31.67;;;21.50;99.90;;;;;;5075400;28;20115;-69
2021/12/03 08:08:58;;;;;;;29.30;18.77;;;21.60;99.90;;;;;;5056530;28;20070;-68
2021/12/03 08:11:25;;;;;;;45.33;26.05;;;21.60;99.90;;;;;;5078599;28;20024;-66
2021/12/03 08:13:52;;;;;;;33.25;20.02;;;21.60;99.90;;;;;;5074161;28;20068;-72
2021/12/03 08:16:19;;;;;;;29.15;18.40;;;21.50;99.90;;;;;;5074116;28;20024;-66
2021/12/03 08:18:46;;;;;;;38.08;24.50;;;21.30;99.90;;;;;;5068211;28;20066;-69
2021/12/03 08:21:13;;;;;;;33.85;23.70;;;21.10;99.90;;;;;;5073468;28;20012;-69
2021/12/03 08:23:40;;;;;;;48.30;26.58;;;21.00;99.90;;;;;;5073218;28;20036;-66
2021/12/03 08:26:07;;;;;;;36.42;24.55;;;20.90;99.90;;;;;;5076679;28;20012;-69
2021/12/03 08:28:34;;;;;;;25.60;17.95;;;20.90;99.90;;;;;;5075152;28;20060;-70
2021/12/03 08:31:01;;;;;;;28.10;16.75;;;20.70;99.90;;;;;;5071963;28;20024;-69
2021/12/03 08:33:28;;;;;;;26.92;16.45;;;20.70;99.90;;;;;;5078124;28;20025;-70
2021/12/03 08:35:55;;;;;;;27.50;17.83;;;20.70;99.90;;;;;;5079510;28;20033;-70
2021/12/03 08:38:22;;;;;;;27.80;17.67;;;20.70;99.90;;;;;;5058662;28;20024;-70
2021/12/03 08:40:49;;;;;;;28.17;17.92;;;20.70;99.90;;;;;;5077000;28;20113;-70
2021/12/03 08:43:16;;;;;;;28.92;18.58;;;20.70;99.90;;;;;;5077816;28;20046;-72
2021/12/03 08:45:44;;;;;;;34.08;20.98;;;20.70;99.90;;;;;;5060187;28;20033;-70
2021/12/03 08:48:11;;;;;;;36.95;23.50;;;20.70;99.90;;;;;;5077207;28;20030;-70
2021/12/03 08:50:49;;;;;;;30.92;19.90;;;20.60;99.90;;;;;;5078452;28;20512;-70
2021/12/03 08:55:43;;;;;;;27.75;18.58;;;20.50;99.90;;;;;;5075155;28;20040;-69
2021/12/03 08:58:13;;;;;;;29.90;19.75;;;20.50;99.90;;;;;;5073301;28;20036;-70
2021/12/03 09:00:41;;;;;;;24.52;15.38;;;20.50;99.90;;;;;;5078081;28;20027;-70
2021/12/03 09:03:08;;;;;;;23.38;13.18;;;20.40;99.90;;;;;;5060713;28;20050;-70
2021/12/03 09:05:37;;;;;;;21.27;12.93;;;20.40;99.90;;;;;;5076720;28;20121;-68
2021/12/03 09:08:05;;;;;;;29.15;13.85;;;20.20;99.90;;;;;;5075975;28;20020;-68
2021/12/03 09:10:32;;;;;;;21.77;13.75;;;20.10;99.90;;;;;;5073699;28;20066;-68
2021/12/03 09:12:59;;;;;;;22.92;14.38;;;20.10;99.90;;;;;;5076643;28;20074;-69
2021/12/03 09:15:34;;;;;;;15.20;10.27;;;20.10;99.90;;;;;;5077218;28;20035;-70
2021/12/03 09:20:58;;;;;;;18.23;11.18;;;20.00;99.90;;;;;;5076712;28;20132;-68
2021/12/03 09:26:13;;;;;;;21.13;10.77;;;20.00;99.90;;;;;;5081414;28;20104;-69
2021/12/03 09:28:44;;;;;;;25.00;18.30;;;20.00;99.90;;;;;;5077869;28;20123;-67
2021/12/03 09:31:12;;;;;;;19.50;12.65;;;19.90;99.90;;;;;;5078428;28;20039;-66
2021/12/03 09:33:41;;;;;;;24.20;12.60;;;19.80;99.90;;;;;;5075615;28;20020;-70
2021/12/03 09:36:09;;;;;;;21.70;10.68;;;19.80;99.90;;;;;;5074679;28;20109;-70
2021/12/03 09:38:37;;;;;;;21.27;12.27;;;19.80;99.90;;;;;;5075230;28;20024;-69
2021/12/03 09:41:16;;;;;;;17.98;9.95;;;19.80;99.90;;;;;;5074766;28;20035;-68
2021/12/03 09:43:46;;;;;;;17.67;10.63;;;19.80;99.90;;;;;;5074419;28;20789;-69
2021/12/03 09:46:20;;;;;;;18.23;11.15;;;19.90;99.90;;;;;;5075572;28;20466;-69
2021/12/03 09:51:24;;;;;;;22.15;13.05;;;20.00;99.90;;;;;;5077409;28;20028;-68
2021/12/03 09:56:37;;;;;;;23.40;13.30;;;19.90;99.90;;;;;;5075364;28;20038;-68
2021/12/03 10:01:43;;;;;;;33.15;20.38;;;19.90;99.90;;;;;;5076731;28;20131;-67
2021/12/03 10:04:36;;;;;;;25.95;19.23;;;19.80;99.90;;;;;;5075421;28;20107;-69
2021/12/03 10:12:39;;;;;;;29.63;22.08;;;19.70;99.90;;;;;;5076563;28;20085;-68
2021/12/03 10:34:22;;;;;;;21.85;15.07;;;19.70;99.90;;;;;;5072061;28;20021;-69
2021/12/03 10:50:40;;;;;;;28.90;20.00;;;19.40;99.90;;;;;;5073511;28;20021;-68
2021/12/03 10:53:22;;;;;;;27.83;21.02;;;19.40;99.90;;;;;;5078467;28;20048;-67
2021/12/03 10:56:24;;;;;;;30.88;22.00;;;19.50;99.90;;;;;;5075063;28;20033;-68
2021/12/03 10:59:37;;;;;;;30.83;23.02;;;19.50;99.90;;;;;;5072356;28;20062;-68
2021/12/03 11:15:55;;;;;;;28.23;20.70;;;19.60;99.90;;;;;;5070706;28;20063;-68
2021/12/03 11:48:49;;;;;;;33.10;23.75;;;19.60;99.90;;;;;;5072531;28;20028;-71
2021/12/03 12:20:20;;;;;;;20.17;11.05;;;19.30;99.90;;;;;;5074200;28;20085;-67
2021/12/03 12:41:46;;;;;;;19.38;9.32;;;19.30;99.90;;;;;;5071908;28;20394;-69
2021/12/03 14:55:54;;;;;;;19.58;9.75;;;19.30;99.90;;;;;;5076289;28;20065;-70
2021/12/03 14:58:29;;;;;;;18.05;9.18;;;19.40;99.90;;;;;;5073188;28;20024;-68
2021/12/03 15:01:46;;;;;;;21.85;11.30;;;19.50;99.90;;;;;;5072165;28;20036;-70
2021/12/03 15:12:04;;;;;;;18.92;10.52;;;19.40;99.90;;;;;;5069961;28;20039;-69
2021/12/03 15:20:14;;;;;;;16.50;11.00;;;19.40;99.90;;;;;;5071283;28;20033;-68
2021/12/03 15:35:57;;;;;;;22.92;11.07;;;19.20;99.90;;;;;;5078010;28;20067;-73
2021/12/03 15:38:39;;;;;;;17.03;10.30;;;19.30;99.90;;;;;;5070649;28;20017;-67
2021/12/03 15:52:41;;;;;;;16.52;9.80;;;19.20;99.90;;;;;;5070643;28;20067;-68
2021/12/03 16:06:22;;;;;;;24.92;9.55;;;19.30;99.90;;;;;;5073809;28;20171;-71
2021/12/03 16:08:48;;;;;;;19.60;10.25;;;19.30;99.90;;;;;;5070464;28;20029;-69
2021/12/03 16:51:47;;;;;;;13.80;4.50;;;19.00;99.90;;;;;;5070230;28;20051;-72
2021/12/03 16:54:25;;;;;;;11.50;4.90;;;18.90;99.90;;;;;;5080967;28;20115;-71
2021/12/03 16:56:54;;;;;;;13.32;6.30;;;18.90;99.90;;;;;;5063301;28;20078;-76
2021/12/03 16:59:22;;;;;;;12.30;5.10;;;19.00;99.90;;;;;;5073384;28;20024;-75
2021/12/03 17:10:44;;;;;;;14.25;5.30;;;18.90;99.90;;;;;;5081220;28;20040;-70
2021/12/03 17:13:39;;;;;;;10.73;5.03;;;18.90;99.90;;;;;;5072656;28;20418;-71
2021/12/03 17:48:00;;;;;;;12.32;5.70;;;18.90;99.90;;;;;;5080705;28;20093;-69
2021/12/03 17:56:02;;;;;;;10.90;6.22;;;18.90;99.90;;;;;;5085582;28;20024;-71
2021/12/03 18:17:05;;;;;;;20.33;10.70;;;18.90;99.90;;;;;;5084075;28;20032;-69
2021/12/03 18:52:09;;;;;;;20.23;8.75;;;18.80;99.90;;;;;;5075913;28;20057;-72
2021/12/03 18:54:55;;;;;;;15.90;8.77;;;18.80;99.90;;;;;;5077552;28;20028;-74
2021/12/03 18:57:27;;;;;;;18.88;7.90;;;18.80;99.90;;;;;;5088032;28;20032;-69
2021/12/03 19:00:04;;;;;;;18.15;8.07;;;18.90;99.90;;;;;;5073460;28;20020;-68
2021/12/03 19:02:33;;;;;;;16.13;9.10;;;18.90;99.90;;;;;;5079340;28;20110;-70
2021/12/03 19:10:09;;;;;;;18.17;7.93;;;19.10;99.90;;;;;;5077611;28;20422;-73
2021/12/03 19:12:39;;;;;;;19.15;7.72;;;19.10;99.90;;;;;;5083804;28;20124;-69
2021/12/03 19:15:07;;;;;;;24.17;8.30;;;19.10;99.90;;;;;;5078059;28;20020;-69
2021/12/03 19:17:40;;;;;;;12.93;7.68;;;19.10;99.90;;;;;;5080428;28;20032;-73
2021/12/03 19:20:12;;;;;;;21.52;9.23;;;19.10;99.90;;;;;;5070862;28;20031;-70
2021/12/03 19:22:38;;;;;;;18.45;8.73;;;19.10;99.90;;;;;;5074190;28;20032;-73
2021/12/03 19:25:06;;;;;;;21.08;9.55;;;19.10;99.90;;;;;;5083603;28;20677;-74
2021/12/03 19:27:33;;;;;;;18.48;10.02;;;19.10;99.90;;;;;;5078133;28;20045;-76
2021/12/03 19:30:01;;;;;;;17.23;8.43;;;19.20;99.90;;;;;;5077959;28;20118;-74
2021/12/03 19:32:31;;;;;;;23.77;9.98;;;19.20;99.90;;;;;;5074438;28;20028;-70
2021/12/03 19:34:59;;;;;;;17.33;9.50;;;19.20;99.90;;;;;;5086213;28;20688;-72
2021/12/03 19:37:28;;;;;;;20.05;9.55;;;19.10;99.90;;;;;;5078942;28;20059;-77
2021/12/03 19:40:00;;;;;;;19.73;10.68;;;19.10;99.90;;;;;;5081956;28;20039;-79
2021/12/03 19:42:33;;;;;;;23.92;10.88;;;19.00;99.90;;;;;;5081674;28;20355;-77
2021/12/03 19:45:04;;;;;;;20.67;10.48;;;19.10;99.90;;;;;;5085793;28;20027;-76
2021/12/03 19:47:35;;;;;;;19.17;9.38;;;19.10;99.90;;;;;;5079835;28;21433;-78
2021/12/03 19:52:47;;;;;;;18.25;9.85;;;19.10;99.90;;;;;;5076920;28;20021;-69
2021/12/03 19:55:14;;;;;;;15.88;9.68;;;19.20;99.90;;;;;;5070766;28;20166;-76
2021/12/03 19:57:41;;;;;;;17.58;8.60;;;19.20;99.90;;;;;;5059751;28;20024;-70
2021/12/03 20:00:09;;;;;;;15.07;9.32;;;19.20;99.90;;;;;;5070087;28;20054;-70
2021/12/03 20:02:36;;;;;;;13.88;9.73;;;19.20;99.90;;;;;;5069883;28;20027;-70
2021/12/03 20:05:04;;;;;;;15.45;10.10;;;19.20;99.90;;;;;;5080340;28;20026;-69
2021/12/03 20:07:31;;;;;;;18.83;10.18;;;19.10;99.90;;;;;;5081446;28;20150;-72
2021/12/03 20:10:01;;;;;;;17.80;11.30;;;19.20;99.90;;;;;;5073150;28;20048;-70
2021/12/03 20:12:32;;;;;;;27.88;12.52;;;19.30;99.90;;;;;;5074188;28;20098;-71
2021/12/03 20:15:02;;;;;;;19.73;11.65;;;19.30;99.90;;;;;;5061089;28;20028;-71
2021/12/03 20:17:36;;;;;;;20.80;13.07;;;19.30;99.90;;;;;;5075702;28;20031;-70
2021/12/03 20:20:06;;;;;;;19.88;14.30;;;19.30;99.90;;;;;;5074509;28;20105;-71
2021/12/03 20:30:23;;;;;;;31.50;22.13;;;19.40;99.90;;;;;;5078810;28;20502;-69
2021/12/03 20:38:16;;;;;;;23.13;13.98;;;19.50;99.90;;;;;;5070501;28;20024;-70
2021/12/03 20:40:43;;;;;;;;;;;19.50;99.90;;;;;;5071025;28;20029;-70
2021/12/03 20:43:43;;;;;;;22.65;12.27;;;19.50;99.90;;;;;;5074396;28;19908;-73
2021/12/03 20:46:13;;;;;;;19.52;12.95;;;19.50;99.90;;;;;;5075687;28;20512;-70
2021/12/03 21:10:27;;;;;;;14.93;12.02;;;20.30;99.90;;;;;;5083083;28;20869;-71
2021/12/03 21:12:56;;;;;;;;;;;20.30;99.90;;;;;;5071415;28;20039;-73
2021/12/03 21:15:40;;;;;;;19.63;14.45;;;20.40;99.90;;;;;;5070227;28;19908;-71